KSVN Informações do Aeroporto

Informações da Pista
Pista 10 Comprimento 11375 ft Largura 200 ft
Elevação 18 ft Limite ft Heading 92
Pista 28 Comprimento 11375 ft Largura 200 ft
Elevação 28 ft Limite ft Heading 272
Frequências do Aeroporto
Tipo A/D Nome SAVANNAH A Frequência 118.4 MHZ
Tipo ATIS Nome ATIS Frequência 32.312 MHZ
Tipo CTAF Nome CTAF Frequência 133.55 MHZ
Tipo GND Nome GND Frequência 121.8 MHZ
Tipo MISC Nome USCG SAVAN Frequência 34.5 MHZ
Tipo OPS Nome ARNG OPS Frequência 38.15 MHZ
Tipo PMSV Nome PMSV METRO Frequência 30.9 MHZ
Tipo PTD Nome PTD Frequência 126.2 MHZ
Tipo TWR Nome TWR Frequência 46.7 MHZ
Navaids do Aeroporto
Tipo NDB Nome Wassa Frequência 335 KHZ
Tipo VOR-DME Nome Hunter Frequência 111600 KHZ
Informações meteorológicas do aeroporto e NOTAM
ADDS - METARS form results

(2329 UTC 03 July 2022)
Data provider http://aviationweather.gov/metar/data/
 
METAR text: KSVN 032256Z AUTO 18009KT 10SM BKN180 31/24 A3000 RMK AO2 SLP162 T03110242 $
Conditions at: KSVN (SAVANNAH/HUNTER , GA, US) observed 2256 UTC 03 July 2022
Temperature: 31.1°C (88°F)
Dewpoint: 24.2°C (76°F) [RH = 67%]
Pressure (altimeter): 30.00 inches Hg (1016.0 mb)
[Sea-level pressure: 1016.2 mb]
Winds: from the S (180 degrees) at 10 MPH (9 knots; 4.6 m/s)
Visibility: 10 or more miles (16+ km)
Ceiling: 18000 feet AGL
Clouds: broken clouds at 18000 feet AGL
Weather:
SOME DATA ABOVE MAY BE INACCURATE!!!
"$" is an indication the sensor requires maintenance